sensor_id;sensor_type;location;lat;lon;timestamp;P1;durP1;ratioP1;P2;durP2;ratioP2
7829;SDS011;3960;51.86894000;5.39848000;2023-05-07T00:01:27;16.63;;;13.40;;
7829;SDS011;3960;51.86894000;5.39848000;2023-05-07T00:03:53;15.02;;;13.45;;
7829;SDS011;3960;51.86894000;5.39848000;2023-05-07T00:06:18;18.77;;;14.80;;
7829;SDS011;3960;51.86894000;5.39848000;2023-05-07T00:08:44;15.43;;;13.82;;
7829;SDS011;3960;51.86894000;5.39848000;2023-05-07T00:11:09;15.77;;;12.80;;
7829;SDS011;3960;51.86894000;5.39848000;2023-05-07T00:13:35;15.85;;;13.98;;
7829;SDS011;3960;51.86894000;5.39848000;2023-05-07T00:16:03;18.83;;;14.45;;
7829;SDS011;3960;51.86894000;5.39848000;2023-05-07T00:18:29;16.80;;;13.63;;
7829;SDS011;3960;51.86894000;5.39848000;2023-05-07T00:20:55;17.33;;;14.60;;
7829;SDS011;3960;51.86894000;5.39848000;2023-05-07T00:23:21;16.00;;;14.02;;
7829;SDS011;3960;51.86894000;5.39848000;2023-05-07T00:25:46;17.55;;;14.40;;
7829;SDS011;3960;51.86894000;5.39848000;2023-05-07T00:28:12;21.10;;;13.85;;
7829;SDS011;3960;51.86894000;5.39848000;2023-05-07T00:30:37;18.90;;;13.82;;
7829;SDS011;3960;51.86894000;5.39848000;2023-05-07T00:33:02;17.55;;;14.48;;
7829;SDS011;3960;51.86894000;5.39848000;2023-05-07T00:35:28;17.83;;;14.85;;
7829;SDS011;3960;51.86894000;5.39848000;2023-05-07T00:37:54;17.70;;;13.70;;
7829;SDS011;3960;51.86894000;5.39848000;2023-05-07T00:40:20;15.93;;;14.25;;
7829;SDS011;3960;51.86894000;5.39848000;2023-05-07T00:42:45;16.83;;;14.65;;
7829;SDS011;3960;51.86894000;5.39848000;2023-05-07T00:45:12;19.77;;;15.40;;
7829;SDS011;3960;51.86894000;5.39848000;2023-05-07T00:47:43;14.98;;;13.30;;
7829;SDS011;3960;51.86894000;5.39848000;2023-05-07T00:50:09;16.52;;;14.25;;
7829;SDS011;3960;51.86894000;5.39848000;2023-05-07T00:52:37;16.95;;;14.15;;
7829;SDS011;3960;51.86894000;5.39848000;2023-05-07T00:55:04;16.33;;;13.00;;
7829;SDS011;3960;51.86894000;5.39848000;2023-05-07T00:57:37;17.00;;;13.93;;
7829;SDS011;3960;51.86894000;5.39848000;2023-05-07T01:00:05;20.45;;;15.00;;
7829;SDS011;3960;51.86894000;5.39848000;2023-05-07T01:02:33;21.33;;;16.70;;
7829;SDS011;3960;51.86894000;5.39848000;2023-05-07T01:04:59;18.48;;;16.20;;
7829;SDS011;3960;51.86894000;5.39848000;2023-05-07T01:07:25;20.85;;;16.25;;
7829;SDS011;3960;51.86894000;5.39848000;2023-05-07T01:09:52;19.77;;;16.65;;
7829;SDS011;3960;51.86894000;5.39848000;2023-05-07T01:12:17;18.45;;;13.80;;
7829;SDS011;3960;51.86894000;5.39848000;2023-05-07T01:14:42;16.85;;;11.60;;
7829;SDS011;3960;51.86894000;5.39848000;2023-05-07T01:17:08;15.50;;;10.95;;
7829;SDS011;3960;51.86894000;5.39848000;2023-05-07T01:19:33;11.57;;;9.88;;
7829;SDS011;3960;51.86894000;5.39848000;2023-05-07T01:22:03;13.43;;;10.50;;
7829;SDS011;3960;51.86894000;5.39848000;2023-05-07T01:24:33;11.52;;;10.40;;
7829;SDS011;3960;51.86894000;5.39848000;2023-05-07T01:27:00;12.18;;;10.38;;
7829;SDS011;3960;51.86894000;5.39848000;2023-05-07T01:29:26;12.48;;;10.45;;
7829;SDS011;3960;51.86894000;5.39848000;2023-05-07T01:31:51;11.27;;;9.98;;
7829;SDS011;3960;51.86894000;5.39848000;2023-05-07T01:34:17;13.68;;;10.15;;
7829;SDS011;3960;51.86894000;5.39848000;2023-05-07T01:36:45;14.07;;;10.55;;
7829;SDS011;3960;51.86894000;5.39848000;2023-05-07T01:39:11;14.32;;;11.38;;
7829;SDS011;3960;51.86894000;5.39848000;2023-05-07T01:41:37;14.05;;;11.10;;
7829;SDS011;3960;51.86894000;5.39848000;2023-05-07T01:44:03;15.35;;;11.48;;
7829;SDS011;3960;51.86894000;5.39848000;2023-05-07T01:46:30;17.75;;;14.02;;
7829;SDS011;3960;51.86894000;5.39848000;2023-05-07T01:48:57;18.73;;;14.23;;
7829;SDS011;3960;51.86894000;5.39848000;2023-05-07T01:51:23;18.83;;;14.43;;
7829;SDS011;3960;51.86894000;5.39848000;2023-05-07T01:53:48;16.38;;;13.20;;
7829;SDS011;3960;51.86894000;5.39848000;2023-05-07T01:56:16;20.30;;;12.88;;
7829;SDS011;3960;51.86894000;5.39848000;2023-05-07T01:58:42;16.00;;;12.55;;
7829;SDS011;3960;51.86894000;5.39848000;2023-05-07T02:01:08;18.60;;;12.50;;
7829;SDS011;3960;51.86894000;5.39848000;2023-05-07T02:03:33;17.52;;;12.73;;
7829;SDS011;3960;51.86894000;5.39848000;2023-05-07T02:05:58;18.85;;;13.45;;
7829;SDS011;3960;51.86894000;5.39848000;2023-05-07T02:08:23;15.18;;;13.35;;
7829;SDS011;3960;51.86894000;5.39848000;2023-05-07T02:10:49;13.00;;;11.35;;
7829;SDS011;3960;51.86894000;5.39848000;2023-05-07T02:13:16;14.75;;;11.73;;
7829;SDS011;3960;51.86894000;5.39848000;2023-05-07T02:15:41;14.43;;;12.32;;
7829;SDS011;3960;51.86894000;5.39848000;2023-05-07T02:18:07;11.95;;;10.75;;
7829;SDS011;3960;51.86894000;5.39848000;2023-05-07T02:20:34;15.45;;;11.63;;
7829;SDS011;3960;51.86894000;5.39848000;2023-05-07T02:22:59;14.85;;;11.40;;
7829;SDS011;3960;51.86894000;5.39848000;2023-05-07T02:25:25;16.73;;;12.15;;
7829;SDS011;3960;51.86894000;5.39848000;2023-05-07T02:27:50;16.80;;;12.15;;
7829;SDS011;3960;51.86894000;5.39848000;2023-05-07T02:30:16;13.68;;;11.27;;
7829;SDS011;3960;51.86894000;5.39848000;2023-05-07T02:32:41;19.42;;;12.05;;
7829;SDS011;3960;51.86894000;5.39848000;2023-05-07T02:35:07;13.07;;;11.68;;
7829;SDS011;3960;51.86894000;5.39848000;2023-05-07T02:37:32;13.80;;;12.07;;
7829;SDS011;3960;51.86894000;5.39848000;2023-05-07T02:39:57;15.20;;;12.38;;
7829;SDS011;3960;51.86894000;5.39848000;2023-05-07T02:42:22;15.68;;;12.13;;
7829;SDS011;3960;51.86894000;5.39848000;2023-05-07T02:44:48;16.05;;;11.45;;
7829;SDS011;3960;51.86894000;5.39848000;2023-05-07T02:47:14;16.55;;;12.30;;
7829;SDS011;3960;51.86894000;5.39848000;2023-05-07T02:49:40;16.58;;;11.85;;
7829;SDS011;3960;51.86894000;5.39848000;2023-05-07T02:52:05;17.58;;;11.75;;
7829;SDS011;3960;51.86894000;5.39848000;2023-05-07T02:54:31;13.80;;;9.63;;
7829;SDS011;3960;51.86894000;5.39848000;2023-05-07T02:56:56;17.60;;;10.75;;
7829;SDS011;3960;51.86894000;5.39848000;2023-05-07T02:59:22;13.93;;;10.68;;
7829;SDS011;3960;51.86894000;5.39848000;2023-05-07T03:01:48;14.60;;;10.23;;
7829;SDS011;3960;51.86894000;5.39848000;2023-05-07T03:04:13;12.23;;;9.95;;
7829;SDS011;3960;51.86894000;5.39848000;2023-05-07T03:06:38;13.27;;;10.27;;
7829;SDS011;3960;51.86894000;5.39848000;2023-05-07T03:09:04;13.05;;;10.52;;
7829;SDS011;3960;51.86894000;5.39848000;2023-05-07T03:11:29;14.32;;;10.77;;
7829;SDS011;3960;51.86894000;5.39848000;2023-05-07T03:13:54;14.95;;;11.10;;
7829;SDS011;3960;51.86894000;5.39848000;2023-05-07T03:16:20;14.40;;;11.05;;
7829;SDS011;3960;51.86894000;5.39848000;2023-05-07T03:18:45;17.45;;;11.63;;
7829;SDS011;3960;51.86894000;5.39848000;2023-05-07T03:21:10;17.10;;;11.32;;
7829;SDS011;3960;51.86894000;5.39848000;2023-05-07T03:23:36;18.20;;;12.73;;
7829;SDS011;3960;51.86894000;5.39848000;2023-05-07T03:26:01;13.93;;;11.35;;
7829;SDS011;3960;51.86894000;5.39848000;2023-05-07T03:28:26;17.35;;;12.52;;
7829;SDS011;3960;51.86894000;5.39848000;2023-05-07T03:30:52;15.82;;;12.60;;
7829;SDS011;3960;51.86894000;5.39848000;2023-05-07T03:33:17;17.52;;;12.50;;
7829;SDS011;3960;51.86894000;5.39848000;2023-05-07T03:35:42;18.77;;;13.57;;
7829;SDS011;3960;51.86894000;5.39848000;2023-05-07T03:38:07;18.38;;;14.02;;
7829;SDS011;3960;51.86894000;5.39848000;2023-05-07T03:40:33;20.73;;;14.52;;
7829;SDS011;3960;51.86894000;5.39848000;2023-05-07T03:42:59;19.33;;;15.15;;
7829;SDS011;3960;51.86894000;5.39848000;2023-05-07T03:45:25;21.75;;;15.07;;
7829;SDS011;3960;51.86894000;5.39848000;2023-05-07T03:47:50;20.65;;;15.88;;
7829;SDS011;3960;51.86894000;5.39848000;2023-05-07T03:50:16;21.63;;;16.05;;
7829;SDS011;3960;51.86894000;5.39848000;2023-05-07T03:52:41;22.38;;;16.38;;
7829;SDS011;3960;51.86894000;5.39848000;2023-05-07T03:55:06;22.00;;;17.88;;
7829;SDS011;3960;51.86894000;5.39848000;2023-05-07T03:57:33;22.20;;;17.83;;
7829;SDS011;3960;51.86894000;5.39848000;2023-05-07T03:59:58;23.20;;;19.67;;
7829;SDS011;3960;51.86894000;5.39848000;2023-05-07T04:02:24;26.70;;;20.20;;
7829;SDS011;3960;51.86894000;5.39848000;2023-05-07T04:04:49;22.50;;;19.65;;
7829;SDS011;3960;51.86894000;5.39848000;2023-05-07T04:07:14;28.48;;;21.05;;
7829;SDS011;3960;51.86894000;5.39848000;2023-05-07T04:09:40;27.52;;;21.67;;
7829;SDS011;3960;51.86894000;5.39848000;2023-05-07T04:12:05;27.38;;;21.30;;
7829;SDS011;3960;51.86894000;5.39848000;2023-05-07T04:14:31;24.75;;;21.08;;
7829;SDS011;3960;51.86894000;5.39848000;2023-05-07T04:16:57;27.77;;;21.05;;
7829;SDS011;3960;51.86894000;5.39848000;2023-05-07T04:19:23;26.45;;;20.52;;
7829;SDS011;3960;51.86894000;5.39848000;2023-05-07T04:21:48;26.23;;;21.90;;
7829;SDS011;3960;51.86894000;5.39848000;2023-05-07T04:24:13;24.95;;;20.48;;
7829;SDS011;3960;51.86894000;5.39848000;2023-05-07T04:26:39;24.27;;;19.75;;
7829;SDS011;3960;51.86894000;5.39848000;2023-05-07T04:29:05;26.73;;;20.67;;
7829;SDS011;3960;51.86894000;5.39848000;2023-05-07T04:31:30;26.48;;;21.08;;
7829;SDS011;3960;51.86894000;5.39848000;2023-05-07T04:33:56;22.92;;;20.52;;
7829;SDS011;3960;51.86894000;5.39848000;2023-05-07T04:36:22;24.60;;;20.75;;
7829;SDS011;3960;51.86894000;5.39848000;2023-05-07T04:38:47;27.25;;;22.25;;
7829;SDS011;3960;51.86894000;5.39848000;2023-05-07T04:41:12;30.00;;;21.88;;
7829;SDS011;3960;51.86894000;5.39848000;2023-05-07T04:43:38;30.75;;;22.67;;
7829;SDS011;3960;51.86894000;5.39848000;2023-05-07T04:46:03;27.77;;;22.02;;
7829;SDS011;3960;51.86894000;5.39848000;2023-05-07T04:48:28;27.83;;;21.75;;
7829;SDS011;3960;51.86894000;5.39848000;2023-05-07T04:50:54;30.20;;;21.90;;
7829;SDS011;3960;51.86894000;5.39848000;2023-05-07T04:53:19;26.88;;;21.38;;
7829;SDS011;3960;51.86894000;5.39848000;2023-05-07T04:55:45;28.23;;;21.33;;
7829;SDS011;3960;51.86894000;5.39848000;2023-05-07T04:58:13;25.98;;;22.00;;
7829;SDS011;3960;51.86894000;5.39848000;2023-05-07T05:00:38;25.02;;;22.27;;
7829;SDS011;3960;51.86894000;5.39848000;2023-05-07T05:03:04;28.23;;;22.05;;
7829;SDS011;3960;51.86894000;5.39848000;2023-05-07T05:05:30;29.90;;;23.10;;
7829;SDS011;3960;51.86894000;5.39848000;2023-05-07T05:07:56;28.50;;;21.63;;
7829;SDS011;3960;51.86894000;5.39848000;2023-05-07T05:10:21;25.67;;;21.73;;
7829;SDS011;3960;51.86894000;5.39848000;2023-05-07T05:12:47;25.23;;;21.00;;
7829;SDS011;3960;51.86894000;5.39848000;2023-05-07T05:15:12;26.75;;;21.90;;
7829;SDS011;3960;51.86894000;5.39848000;2023-05-07T05:17:38;28.77;;;21.58;;
7829;SDS011;3960;51.86894000;5.39848000;2023-05-07T05:20:04;24.52;;;19.00;;
7829;SDS011;3960;51.86894000;5.39848000;2023-05-07T05:22:30;23.77;;;20.23;;
7829;SDS011;3960;51.86894000;5.39848000;2023-05-07T05:24:56;28.13;;;20.30;;
7829;SDS011;3960;51.86894000;5.39848000;2023-05-07T05:27:21;24.70;;;19.83;;
7829;SDS011;3960;51.86894000;5.39848000;2023-05-07T05:29:47;23.98;;;21.05;;
7829;SDS011;3960;51.86894000;5.39848000;2023-05-07T05:32:12;25.55;;;20.40;;
7829;SDS011;3960;51.86894000;5.39848000;2023-05-07T05:34:37;26.20;;;21.08;;
7829;SDS011;3960;51.86894000;5.39848000;2023-05-07T05:37:03;27.25;;;21.05;;
7829;SDS011;3960;51.86894000;5.39848000;2023-05-07T05:39:28;30.13;;;21.63;;
7829;SDS011;3960;51.86894000;5.39848000;2023-05-07T05:41:53;33.10;;;21.35;;
7829;SDS011;3960;51.86894000;5.39848000;2023-05-07T05:44:19;26.73;;;22.15;;
7829;SDS011;3960;51.86894000;5.39848000;2023-05-07T05:46:44;29.25;;;22.70;;
7829;SDS011;3960;51.86894000;5.39848000;2023-05-07T05:49:10;27.45;;;21.65;;
7829;SDS011;3960;51.86894000;5.39848000;2023-05-07T05:51:35;25.63;;;21.38;;
7829;SDS011;3960;51.86894000;5.39848000;2023-05-07T05:54:00;27.88;;;22.15;;
7829;SDS011;3960;51.86894000;5.39848000;2023-05-07T05:56:25;27.23;;;21.13;;
7829;SDS011;3960;51.86894000;5.39848000;2023-05-07T05:58:51;27.73;;;22.13;;
7829;SDS011;3960;51.86894000;5.39848000;2023-05-07T06:01:17;28.10;;;22.15;;
7829;SDS011;3960;51.86894000;5.39848000;2023-05-07T06:03:42;29.65;;;22.33;;
7829;SDS011;3960;51.86894000;5.39848000;2023-05-07T06:06:08;28.55;;;22.98;;
7829;SDS011;3960;51.86894000;5.39848000;2023-05-07T06:08:33;31.08;;;23.73;;
7829;SDS011;3960;51.86894000;5.39848000;2023-05-07T06:10:58;28.45;;;24.08;;
7829;SDS011;3960;51.86894000;5.39848000;2023-05-07T06:13:24;31.13;;;23.80;;
7829;SDS011;3960;51.86894000;5.39848000;2023-05-07T06:15:50;30.33;;;24.48;;
7829;SDS011;3960;51.86894000;5.39848000;2023-05-07T06:18:15;31.58;;;25.25;;
7829;SDS011;3960;51.86894000;5.39848000;2023-05-07T06:20:40;30.30;;;24.15;;
7829;SDS011;3960;51.86894000;5.39848000;2023-05-07T06:23:06;29.50;;;24.48;;
7829;SDS011;3960;51.86894000;5.39848000;2023-05-07T06:25:31;30.67;;;23.52;;
7829;SDS011;3960;51.86894000;5.39848000;2023-05-07T06:27:56;28.77;;;22.67;;
7829;SDS011;3960;51.86894000;5.39848000;2023-05-07T06:30:21;28.15;;;22.60;;
7829;SDS011;3960;51.86894000;5.39848000;2023-05-07T06:32:47;28.73;;;22.25;;
7829;SDS011;3960;51.86894000;5.39848000;2023-05-07T06:35:12;31.45;;;21.13;;
7829;SDS011;3960;51.86894000;5.39848000;2023-05-07T06:37:38;30.05;;;21.60;;
7829;SDS011;3960;51.86894000;5.39848000;2023-05-07T06:40:05;24.42;;;20.38;;
7829;SDS011;3960;51.86894000;5.39848000;2023-05-07T06:42:32;26.83;;;21.55;;
7829;SDS011;3960;51.86894000;5.39848000;2023-05-07T06:44:57;27.95;;;21.20;;
7829;SDS011;3960;51.86894000;5.39848000;2023-05-07T06:47:22;26.52;;;21.33;;
7829;SDS011;3960;51.86894000;5.39848000;2023-05-07T06:49:53;28.98;;;21.77;;
7829;SDS011;3960;51.86894000;5.39848000;2023-05-07T06:54:44;27.67;;;21.58;;
7829;SDS011;3960;51.86894000;5.39848000;2023-05-07T06:57:09;28.80;;;23.17;;
7829;SDS011;3960;51.86894000;5.39848000;2023-05-07T06:59:35;28.02;;;22.80;;
7829;SDS011;3960;51.86894000;5.39848000;2023-05-07T07:02:00;27.60;;;22.50;;
7829;SDS011;3960;51.86894000;5.39848000;2023-05-07T07:04:25;26.17;;;21.83;;
7829;SDS011;3960;51.86894000;5.39848000;2023-05-07T07:06:51;28.50;;;22.73;;
7829;SDS011;3960;51.86894000;5.39848000;2023-05-07T07:09:17;26.52;;;20.25;;
7829;SDS011;3960;51.86894000;5.39848000;2023-05-07T07:11:43;26.55;;;20.92;;
7829;SDS011;3960;51.86894000;5.39848000;2023-05-07T07:14:08;29.50;;;21.33;;
7829;SDS011;3960;51.86894000;5.39848000;2023-05-07T07:16:33;24.80;;;20.30;;
7829;SDS011;3960;51.86894000;5.39848000;2023-05-07T07:18:58;24.23;;;20.02;;
7829;SDS011;3960;51.86894000;5.39848000;2023-05-07T07:21:24;24.85;;;20.13;;
7829;SDS011;3960;51.86894000;5.39848000;2023-05-07T07:23:49;24.98;;;19.50;;
7829;SDS011;3960;51.86894000;5.39848000;2023-05-07T07:26:14;22.95;;;18.50;;
7829;SDS011;3960;51.86894000;5.39848000;2023-05-07T07:28:43;23.83;;;19.08;;
7829;SDS011;3960;51.86894000;5.39848000;2023-05-07T07:31:10;23.02;;;18.50;;
7829;SDS011;3960;51.86894000;5.39848000;2023-05-07T07:33:35;20.98;;;18.25;;
7829;SDS011;3960;51.86894000;5.39848000;2023-05-07T07:36:01;26.88;;;19.60;;
7829;SDS011;3960;51.86894000;5.39848000;2023-05-07T07:38:26;23.65;;;18.30;;
7829;SDS011;3960;51.86894000;5.39848000;2023-05-07T07:40:52;21.85;;;17.45;;
7829;SDS011;3960;51.86894000;5.39848000;2023-05-07T07:43:17;21.20;;;16.60;;
7829;SDS011;3960;51.86894000;5.39848000;2023-05-07T07:45:42;18.23;;;16.10;;
7829;SDS011;3960;51.86894000;5.39848000;2023-05-07T07:48:07;20.50;;;16.63;;
7829;SDS011;3960;51.86894000;5.39848000;2023-05-07T07:50:33;19.20;;;15.80;;
7829;SDS011;3960;51.86894000;5.39848000;2023-05-07T07:52:58;22.77;;;16.38;;
7829;SDS011;3960;51.86894000;5.39848000;2023-05-07T07:55:23;18.25;;;14.95;;
7829;SDS011;3960;51.86894000;5.39848000;2023-05-07T07:57:49;18.20;;;14.55;;
7829;SDS011;3960;51.86894000;5.39848000;2023-05-07T08:00:15;18.83;;;14.45;;
7829;SDS011;3960;51.86894000;5.39848000;2023-05-07T08:02:41;16.75;;;14.95;;
7829;SDS011;3960;51.86894000;5.39848000;2023-05-07T08:05:06;18.40;;;14.60;;
7829;SDS011;3960;51.86894000;5.39848000;2023-05-07T08:07:32;17.35;;;14.48;;
7829;SDS011;3960;51.86894000;5.39848000;2023-05-07T08:09:57;17.77;;;14.32;;
7829;SDS011;3960;51.86894000;5.39848000;2023-05-07T08:12:23;17.05;;;14.73;;
7829;SDS011;3960;51.86894000;5.39848000;2023-05-07T08:14:48;16.90;;;13.55;;
7829;SDS011;3960;51.86894000;5.39848000;2023-05-07T08:17:13;17.75;;;13.63;;
7829;SDS011;3960;51.86894000;5.39848000;2023-05-07T08:19:40;17.40;;;13.82;;
7829;SDS011;3960;51.86894000;5.39848000;2023-05-07T08:22:06;13.63;;;12.13;;
7829;SDS011;3960;51.86894000;5.39848000;2023-05-07T08:24:31;17.00;;;12.93;;
7829;SDS011;3960;51.86894000;5.39848000;2023-05-07T08:26:57;15.15;;;11.93;;
7829;SDS011;3960;51.86894000;5.39848000;2023-05-07T08:29:22;14.75;;;12.00;;
7829;SDS011;3960;51.86894000;5.39848000;2023-05-07T08:31:47;12.68;;;11.25;;
7829;SDS011;3960;51.86894000;5.39848000;2023-05-07T08:34:12;13.57;;;10.93;;
7829;SDS011;3960;51.86894000;5.39848000;2023-05-07T08:36:38;17.15;;;11.98;;
7829;SDS011;3960;51.86894000;5.39848000;2023-05-07T08:39:03;14.75;;;11.48;;
7829;SDS011;3960;51.86894000;5.39848000;2023-05-07T08:41:29;13.57;;;10.82;;
7829;SDS011;3960;51.86894000;5.39848000;2023-05-07T08:43:54;12.13;;;10.82;;
7829;SDS011;3960;51.86894000;5.39848000;2023-05-07T08:46:23;14.15;;;11.73;;
7829;SDS011;3960;51.86894000;5.39848000;2023-05-07T08:48:50;11.52;;;10.02;;
7829;SDS011;3960;51.86894000;5.39848000;2023-05-07T08:51:17;13.77;;;10.60;;
7829;SDS011;3960;51.86894000;5.39848000;2023-05-07T08:53:45;13.13;;;10.80;;
7829;SDS011;3960;51.86894000;5.39848000;2023-05-07T08:56:13;13.18;;;10.95;;
7829;SDS011;3960;51.86894000;5.39848000;2023-05-07T08:58:40;14.90;;;10.70;;
7829;SDS011;3960;51.86894000;5.39848000;2023-05-07T09:01:08;15.70;;;10.20;;
7829;SDS011;3960;51.86894000;5.39848000;2023-05-07T09:03:38;11.40;;;9.45;;
7829;SDS011;3960;51.86894000;5.39848000;2023-05-07T09:06:04;10.55;;;9.45;;
7829;SDS011;3960;51.86894000;5.39848000;2023-05-07T09:08:29;12.63;;;9.85;;
7829;SDS011;3960;51.86894000;5.39848000;2023-05-07T09:10:55;11.75;;;9.63;;
7829;SDS011;3960;51.86894000;5.39848000;2023-05-07T09:13:20;11.90;;;8.90;;
7829;SDS011;3960;51.86894000;5.39848000;2023-05-07T09:15:46;13.90;;;10.77;;
7829;SDS011;3960;51.86894000;5.39848000;2023-05-07T09:18:12;11.32;;;10.02;;
7829;SDS011;3960;51.86894000;5.39848000;2023-05-07T09:20:37;11.52;;;9.95;;
7829;SDS011;3960;51.86894000;5.39848000;2023-05-07T09:23:03;13.15;;;10.27;;
7829;SDS011;3960;51.86894000;5.39848000;2023-05-07T09:25:29;12.38;;;10.02;;
7829;SDS011;3960;51.86894000;5.39848000;2023-05-07T09:27:59;12.77;;;10.13;;
7829;SDS011;3960;51.86894000;5.39848000;2023-05-07T09:30:31;11.70;;;9.80;;
7829;SDS011;3960;51.86894000;5.39848000;2023-05-07T09:32:57;12.48;;;10.57;;
7829;SDS011;3960;51.86894000;5.39848000;2023-05-07T09:35:27;10.23;;;8.82;;
7829;SDS011;3960;51.86894000;5.39848000;2023-05-07T09:37:53;9.57;;;8.52;;
7829;SDS011;3960;51.86894000;5.39848000;2023-05-07T09:40:23;9.65;;;8.30;;
7829;SDS011;3960;51.86894000;5.39848000;2023-05-07T09:42:50;10.80;;;8.70;;
7829;SDS011;3960;51.86894000;5.39848000;2023-05-07T09:45:16;10.25;;;8.75;;
7829;SDS011;3960;51.86894000;5.39848000;2023-05-07T09:47:46;10.13;;;8.70;;
7829;SDS011;3960;51.86894000;5.39848000;2023-05-07T09:50:14;11.35;;;8.52;;
7829;SDS011;3960;51.86894000;5.39848000;2023-05-07T09:52:41;11.90;;;9.07;;
7829;SDS011;3960;51.86894000;5.39848000;2023-05-07T09:55:07;10.55;;;8.77;;
7829;SDS011;3960;51.86894000;5.39848000;2023-05-07T09:57:33;12.75;;;8.70;;
7829;SDS011;3960;51.86894000;5.39848000;2023-05-07T09:59:59;9.77;;;8.23;;
7829;SDS011;3960;51.86894000;5.39848000;2023-05-07T10:02:29;12.32;;;8.60;;
7829;SDS011;3960;51.86894000;5.39848000;2023-05-07T10:04:55;9.98;;;8.57;;
7829;SDS011;3960;51.86894000;5.39848000;2023-05-07T10:07:23;12.30;;;9.10;;
7829;SDS011;3960;51.86894000;5.39848000;2023-05-07T10:09:49;12.55;;;8.98;;
7829;SDS011;3960;51.86894000;5.39848000;2023-05-07T10:12:15;12.90;;;9.35;;
7829;SDS011;3960;51.86894000;5.39848000;2023-05-07T10:14:42;12.88;;;9.18;;
7829;SDS011;3960;51.86894000;5.39848000;2023-05-07T10:17:09;13.23;;;9.30;;
7829;SDS011;3960;51.86894000;5.39848000;2023-05-07T10:19:36;15.95;;;8.80;;
7829;SDS011;3960;51.86894000;5.39848000;2023-05-07T10:22:03;11.10;;;9.13;;
7829;SDS011;3960;51.86894000;5.39848000;2023-05-07T10:24:34;10.98;;;9.30;;
7829;SDS011;3960;51.86894000;5.39848000;2023-05-07T10:27:02;11.98;;;8.90;;
7829;SDS011;3960;51.86894000;5.39848000;2023-05-07T10:29:33;9.73;;;8.70;;
7829;SDS011;3960;51.86894000;5.39848000;2023-05-07T10:35:03;10.18;;;8.70;;
7829;SDS011;3960;51.86894000;5.39848000;2023-05-07T10:37:34;11.68;;;8.55;;
7829;SDS011;3960;51.86894000;5.39848000;2023-05-07T10:39:59;11.15;;;9.27;;
7829;SDS011;3960;51.86894000;5.39848000;2023-05-07T10:42:25;10.68;;;8.65;;
7829;SDS011;3960;51.86894000;5.39848000;2023-05-07T10:44:50;11.60;;;8.80;;
7829;SDS011;3960;51.86894000;5.39848000;2023-05-07T10:47:16;10.65;;;8.82;;
7829;SDS011;3960;51.86894000;5.39848000;2023-05-07T10:52:15;10.35;;;8.23;;
7829;SDS011;3960;51.86894000;5.39848000;2023-05-07T10:54:43;11.23;;;8.60;;
7829;SDS011;3960;51.86894000;5.39848000;2023-05-07T10:59:53;8.70;;;7.78;;
7829;SDS011;3960;51.86894000;5.39848000;2023-05-07T11:02:18;9.25;;;8.10;;
7829;SDS011;3960;51.86894000;5.39848000;2023-05-07T11:04:43;9.45;;;8.45;;
7829;SDS011;3960;51.86894000;5.39848000;2023-05-07T11:07:26;10.90;;;8.43;;
7829;SDS011;3960;51.86894000;5.39848000;2023-05-07T11:17:52;12.23;;;8.80;;
7829;SDS011;3960;51.86894000;5.39848000;2023-05-07T11:20:19;12.15;;;9.40;;
7829;SDS011;3960;51.86894000;5.39848000;2023-05-07T11:22:45;12.80;;;9.27;;
7829;SDS011;3960;51.86894000;5.39848000;2023-05-07T11:25:10;12.63;;;9.77;;
7829;SDS011;3960;51.86894000;5.39848000;2023-05-07T11:27:42;13.70;;;8.88;;
7829;SDS011;3960;51.86894000;5.39848000;2023-05-07T11:30:08;11.05;;;9.20;;
7829;SDS011;3960;51.86894000;5.39848000;2023-05-07T11:32:34;9.63;;;8.55;;
7829;SDS011;3960;51.86894000;5.39848000;2023-05-07T11:35:00;10.00;;;8.88;;
7829;SDS011;3960;51.86894000;5.39848000;2023-05-07T11:37:26;10.43;;;9.23;;
7829;SDS011;3960;51.86894000;5.39848000;2023-05-07T11:42:33;12.15;;;9.10;;
7829;SDS011;3960;51.86894000;5.39848000;2023-05-07T11:44:59;11.05;;;9.65;;
7829;SDS011;3960;51.86894000;5.39848000;2023-05-07T11:47:25;11.05;;;9.07;;
7829;SDS011;3960;51.86894000;5.39848000;2023-05-07T11:49:52;11.43;;;9.20;;
7829;SDS011;3960;51.86894000;5.39848000;2023-05-07T11:52:18;10.55;;;9.43;;
7829;SDS011;3960;51.86894000;5.39848000;2023-05-07T11:54:52;11.52;;;9.70;;
7829;SDS011;3960;51.86894000;5.39848000;2023-05-07T11:57:19;10.60;;;9.50;;
7829;SDS011;3960;51.86894000;5.39848000;2023-05-07T11:59:45;13.43;;;9.75;;
7829;SDS011;3960;51.86894000;5.39848000;2023-05-07T12:02:13;12.48;;;8.88;;
7829;SDS011;3960;51.86894000;5.39848000;2023-05-07T12:04:40;13.93;;;8.77;;
7829;SDS011;3960;51.86894000;5.39848000;2023-05-07T12:07:05;11.90;;;9.07;;
7829;SDS011;3960;51.86894000;5.39848000;2023-05-07T12:09:35;11.13;;;8.80;;
7829;SDS011;3960;51.86894000;5.39848000;2023-05-07T12:12:04;12.23;;;9.10;;
7829;SDS011;3960;51.86894000;5.39848000;2023-05-07T12:14:30;11.68;;;8.43;;
7829;SDS011;3960;51.86894000;5.39848000;2023-05-07T12:16:55;11.20;;;9.43;;
7829;SDS011;3960;51.86894000;5.39848000;2023-05-07T12:19:21;9.75;;;8.65;;
7829;SDS011;3960;51.86894000;5.39848000;2023-05-07T12:21:46;9.80;;;7.97;;
7829;SDS011;3960;51.86894000;5.39848000;2023-05-07T12:24:13;11.98;;;8.43;;
7829;SDS011;3960;51.86894000;5.39848000;2023-05-07T12:26:39;10.25;;;8.25;;
7829;SDS011;3960;51.86894000;5.39848000;2023-05-07T12:29:06;11.32;;;8.85;;
7829;SDS011;3960;51.86894000;5.39848000;2023-05-07T12:31:31;11.75;;;9.23;;
7829;SDS011;3960;51.86894000;5.39848000;2023-05-07T12:33:57;10.05;;;8.20;;
7829;SDS011;3960;51.86894000;5.39848000;2023-05-07T12:36:22;13.43;;;7.88;;
7829;SDS011;3960;51.86894000;5.39848000;2023-05-07T12:38:49;10.52;;;8.35;;
7829;SDS011;3960;51.86894000;5.39848000;2023-05-07T12:41:15;10.30;;;7.97;;
7829;SDS011;3960;51.86894000;5.39848000;2023-05-07T12:43:42;10.75;;;8.30;;
7829;SDS011;3960;51.86894000;5.39848000;2023-05-07T12:46:09;9.75;;;8.20;;
7829;SDS011;3960;51.86894000;5.39848000;2023-05-07T12:48:37;9.07;;;6.95;;
7829;SDS011;3960;51.86894000;5.39848000;2023-05-07T12:51:03;9.80;;;6.65;;
7829;SDS011;3960;51.86894000;5.39848000;2023-05-07T12:53:30;12.82;;;8.10;;
7829;SDS011;3960;51.86894000;5.39848000;2023-05-07T12:55:57;9.00;;;7.70;;
7829;SDS011;3960;51.86894000;5.39848000;2023-05-07T12:58:25;8.15;;;6.90;;
7829;SDS011;3960;51.86894000;5.39848000;2023-05-07T13:00:55;9.02;;;6.25;;
7829;SDS011;3960;51.86894000;5.39848000;2023-05-07T13:06:05;8.80;;;6.28;;
7829;SDS011;3960;51.86894000;5.39848000;2023-05-07T13:08:35;10.18;;;6.20;;
7829;SDS011;3960;51.86894000;5.39848000;2023-05-07T13:11:02;7.45;;;6.07;;
7829;SDS011;3960;51.86894000;5.39848000;2023-05-07T13:13:32;8.25;;;6.00;;